sensor_id;sensor_type;location;lat;lon;timestamp;temperature;humidity
25532;DHT22;13429;48.816;9.118;2024-01-11T00:01:45;-3270.70;84.60
25532;DHT22;13429;48.816;9.118;2024-01-11T00:04:11;-3270.60;84.80
25532;DHT22;13429;48.816;9.118;2024-01-11T00:06:44;-3270.60;85.00
25532;DHT22;13429;48.816;9.118;2024-01-11T00:09:10;-3270.60;84.60
25532;DHT22;13429;48.816;9.118;2024-01-11T00:11:36;-3270.50;84.50
25532;DHT22;13429;48.816;9.118;2024-01-11T00:14:01;-3270.50;84.40
25532;DHT22;13429;48.816;9.118;2024-01-11T00:16:27;-3270.50;84.60
25532;DHT22;13429;48.816;9.118;2024-01-11T00:18:52;-3270.60;84.50
25532;DHT22;13429;48.816;9.118;2024-01-11T00:21:18;-3270.60;84.40
25532;DHT22;13429;48.816;9.118;2024-01-11T00:23:44;-3270.50;85.00
25532;DHT22;13429;48.816;9.118;2024-01-11T00:26:12;-3270.50;84.90
25532;DHT22;13429;48.816;9.118;2024-01-11T00:28:38;-3270.40;84.70
25532;DHT22;13429;48.816;9.118;2024-01-11T00:31:04;-3270.50;84.80
25532;DHT22;13429;48.816;9.118;2024-01-11T00:33:30;-3270.40;84.90
25532;DHT22;13429;48.816;9.118;2024-01-11T00:35:55;-3270.40;85.20
25532;DHT22;13429;48.816;9.118;2024-01-11T00:38:21;-3270.40;84.90
25532;DHT22;13429;48.816;9.118;2024-01-11T00:40:47;-3270.30;84.70
25532;DHT22;13429;48.816;9.118;2024-01-11T00:43:13;-3270.30;84.90
25532;DHT22;13429;48.816;9.118;2024-01-11T00:45:38;-3270.30;84.70
25532;DHT22;13429;48.816;9.118;2024-01-11T00:48:04;-3270.30;84.90
25532;DHT22;13429;48.816;9.118;2024-01-11T00:50:30;-3270.30;85.10
25532;DHT22;13429;48.816;9.118;2024-01-11T00:52:56;-3270.30;85.70
25532;DHT22;13429;48.816;9.118;2024-01-11T00:55:22;-3270.20;85.30
25532;DHT22;13429;48.816;9.118;2024-01-11T00:57:47;-3270.20;85.30
25532;DHT22;13429;48.816;9.118;2024-01-11T01:00:13;-3270.20;85.10
25532;DHT22;13429;48.816;9.118;2024-01-11T01:02:39;-3270.20;85.10
25532;DHT22;13429;48.816;9.118;2024-01-11T01:05:05;-3270.30;85.10
25532;DHT22;13429;48.816;9.118;2024-01-11T01:07:32;-3270.40;85.30
25532;DHT22;13429;48.816;9.118;2024-01-11T01:09:57;-3270.40;85.50
25532;DHT22;13429;48.816;9.118;2024-01-11T01:12:23;-3270.30;85.50
25532;DHT22;13429;48.816;9.118;2024-01-11T01:14:51;-3270.30;85.30
25532;DHT22;13429;48.816;9.118;2024-01-11T01:17:16;-3270.30;85.20
25532;DHT22;13429;48.816;9.118;2024-01-11T01:19:42;-3270.20;85.10
25532;DHT22;13429;48.816;9.118;2024-01-11T01:22:07;-3270.20;85.10
25532;DHT22;13429;48.816;9.118;2024-01-11T01:24:33;-3270.20;85.50
25532;DHT22;13429;48.816;9.118;2024-01-11T01:26:59;-3270.20;85.30
25532;DHT22;13429;48.816;9.118;2024-01-11T01:29:24;-3270.20;85.60
25532;DHT22;13429;48.816;9.118;2024-01-11T01:31:51;-3270.20;85.50
25532;DHT22;13429;48.816;9.118;2024-01-11T01:34:17;-3270.10;85.70
25532;DHT22;13429;48.816;9.118;2024-01-11T01:36:42;-3270.20;85.60
25532;DHT22;13429;48.816;9.118;2024-01-11T01:39:08;-3270.10;85.40
25532;DHT22;13429;48.816;9.118;2024-01-11T01:41:33;-3270.20;85.50
25532;DHT22;13429;48.816;9.118;2024-01-11T01:43:59;-3270.10;85.50
25532;DHT22;13429;48.816;9.118;2024-01-11T01:46:25;-3270.20;85.60
25532;DHT22;13429;48.816;9.118;2024-01-11T01:48:57;-3270.20;85.70
25532;DHT22;13429;48.816;9.118;2024-01-11T01:51:26;-3270.20;85.80
25532;DHT22;13429;48.816;9.118;2024-01-11T01:53:53;-3270.20;86.10
25532;DHT22;13429;48.816;9.118;2024-01-11T01:56:20;-3270.30;86.20
25532;DHT22;13429;48.816;9.118;2024-01-11T01:58:48;-3270.20;85.90
25532;DHT22;13429;48.816;9.118;2024-01-11T02:01:15;-3270.20;86.00
25532;DHT22;13429;48.816;9.118;2024-01-11T02:03:41;-3270.10;85.90
25532;DHT22;13429;48.816;9.118;2024-01-11T02:06:09;-3270.10;85.90
25532;DHT22;13429;48.816;9.118;2024-01-11T02:08:34;-3270.10;86.10
25532;DHT22;13429;48.816;9.118;2024-01-11T02:11:01;-3270.00;85.70
25532;DHT22;13429;48.816;9.118;2024-01-11T02:13:27;-3270.00;85.80
25532;DHT22;13429;48.816;9.118;2024-01-11T02:15:52;-3270.00;86.20
25532;DHT22;13429;48.816;9.118;2024-01-11T02:18:18;-3270.00;85.90
25532;DHT22;13429;48.816;9.118;2024-01-11T02:20:44;-3270.00;86.00
25532;DHT22;13429;48.816;9.118;2024-01-11T02:23:17;-3270.00;85.80
25532;DHT22;13429;48.816;9.118;2024-01-11T02:25:44;-3270.00;86.00
25532;DHT22;13429;48.816;9.118;2024-01-11T02:28:10;-3269.90;86.00
25532;DHT22;13429;48.816;9.118;2024-01-11T02:30:36;-3269.90;85.80
25532;DHT22;13429;48.816;9.118;2024-01-11T02:33:03;-3269.90;86.00
25532;DHT22;13429;48.816;9.118;2024-01-11T02:35:30;-3269.90;86.10
25532;DHT22;13429;48.816;9.118;2024-01-11T02:37:57;-3269.90;86.00
25532;DHT22;13429;48.816;9.118;2024-01-11T02:40:26;-3269.80;85.90
25532;DHT22;13429;48.816;9.118;2024-01-11T02:42:51;-3269.90;86.10
25532;DHT22;13429;48.816;9.118;2024-01-11T02:45:17;-3269.80;86.00
25532;DHT22;13429;48.816;9.118;2024-01-11T02:47:44;-3269.90;86.00
25532;DHT22;13429;48.816;9.118;2024-01-11T02:50:10;-3269.90;86.00
25532;DHT22;13429;48.816;9.118;2024-01-11T02:52:37;-3269.90;86.30
25532;DHT22;13429;48.816;9.118;2024-01-11T02:55:03;-3269.80;86.40
25532;DHT22;13429;48.816;9.118;2024-01-11T02:57:29;-3269.80;86.10
25532;DHT22;13429;48.816;9.118;2024-01-11T02:59:54;-3269.80;86.10
25532;DHT22;13429;48.816;9.118;2024-01-11T03:02:20;-3269.80;86.10
25532;DHT22;13429;48.816;9.118;2024-01-11T03:04:46;-3269.80;86.30
25532;DHT22;13429;48.816;9.118;2024-01-11T03:07:11;-3269.80;86.40
25532;DHT22;13429;48.816;9.118;2024-01-11T03:09:37;-3269.80;86.20
25532;DHT22;13429;48.816;9.118;2024-01-11T03:12:03;-3269.80;86.30
25532;DHT22;13429;48.816;9.118;2024-01-11T03:14:29;-3269.80;86.30
25532;DHT22;13429;48.816;9.118;2024-01-11T03:16:54;-3269.80;86.40
25532;DHT22;13429;48.816;9.118;2024-01-11T03:19:20;-3269.80;86.40
25532;DHT22;13429;48.816;9.118;2024-01-11T03:21:46;-3269.80;86.40
25532;DHT22;13429;48.816;9.118;2024-01-11T03:24:13;-3269.80;86.40
25532;DHT22;13429;48.816;9.118;2024-01-11T03:26:38;-3269.80;86.60
25532;DHT22;13429;48.816;9.118;2024-01-11T03:29:05;-3269.80;86.40
25532;DHT22;13429;48.816;9.118;2024-01-11T03:31:30;-3269.80;86.40
25532;DHT22;13429;48.816;9.118;2024-01-11T03:33:57;-3269.80;86.60
25532;DHT22;13429;48.816;9.118;2024-01-11T03:36:26;-3269.80;86.40
25532;DHT22;13429;48.816;9.118;2024-01-11T03:38:51;-3269.80;86.40
25532;DHT22;13429;48.816;9.118;2024-01-11T03:41:17;-3269.80;86.50
25532;DHT22;13429;48.816;9.118;2024-01-11T03:43:42;-3269.80;86.50
25532;DHT22;13429;48.816;9.118;2024-01-11T03:46:08;-3269.80;86.60
25532;DHT22;13429;48.816;9.118;2024-01-11T03:48:34;-3269.80;86.50
25532;DHT22;13429;48.816;9.118;2024-01-11T03:51:02;-3269.80;86.50
25532;DHT22;13429;48.816;9.118;2024-01-11T03:53:28;-3269.70;86.60
25532;DHT22;13429;48.816;9.118;2024-01-11T03:55:54;-3269.70;86.50
25532;DHT22;13429;48.816;9.118;2024-01-11T03:58:19;-3269.70;86.60
25532;DHT22;13429;48.816;9.118;2024-01-11T04:00:45;-3269.70;86.60
25532;DHT22;13429;48.816;9.118;2024-01-11T04:03:11;-3269.70;86.60
25532;DHT22;13429;48.816;9.118;2024-01-11T04:05:36;-3269.70;86.70
25532;DHT22;13429;48.816;9.118;2024-01-11T04:08:06;-3269.70;86.60
25532;DHT22;13429;48.816;9.118;2024-01-11T04:10:32;-3269.70;86.60
25532;DHT22;13429;48.816;9.118;2024-01-11T04:12:58;-3269.60;86.60
25532;DHT22;13429;48.816;9.118;2024-01-11T04:15:24;-3269.50;86.80
25532;DHT22;13429;48.816;9.118;2024-01-11T04:17:49;-3269.50;87.10
25532;DHT22;13429;48.816;9.118;2024-01-11T04:20:15;-3269.50;86.90
25532;DHT22;13429;48.816;9.118;2024-01-11T04:22:41;-3269.50;87.20
25532;DHT22;13429;48.816;9.118;2024-01-11T04:25:07;-3269.50;87.40
25532;DHT22;13429;48.816;9.118;2024-01-11T04:27:33;-3269.50;87.20
25532;DHT22;13429;48.816;9.118;2024-01-11T04:29:58;-3269.50;87.10
25532;DHT22;13429;48.816;9.118;2024-01-11T04:32:24;-3269.50;87.30
25532;DHT22;13429;48.816;9.118;2024-01-11T04:34:49;-3269.50;87.40
25532;DHT22;13429;48.816;9.118;2024-01-11T04:37:15;-3269.50;87.00
25532;DHT22;13429;48.816;9.118;2024-01-11T04:39:41;-3269.50;87.40
25532;DHT22;13429;48.816;9.118;2024-01-11T04:42:06;-3269.40;87.50
25532;DHT22;13429;48.816;9.118;2024-01-11T04:44:32;-3269.40;87.30
25532;DHT22;13429;48.816;9.118;2024-01-11T04:46:57;-3269.50;87.20
25532;DHT22;13429;48.816;9.118;2024-01-11T04:49:23;-3269.40;87.10
25532;DHT22;13429;48.816;9.118;2024-01-11T04:51:49;-3269.50;87.10
25532;DHT22;13429;48.816;9.118;2024-01-11T04:54:14;-3269.40;87.10
25532;DHT22;13429;48.816;9.118;2024-01-11T04:56:40;-3269.40;87.20
25532;DHT22;13429;48.816;9.118;2024-01-11T04:59:05;-3269.40;87.20
25532;DHT22;13429;48.816;9.118;2024-01-11T05:01:31;-3269.40;87.30
25532;DHT22;13429;48.816;9.118;2024-01-11T05:03:57;-3269.40;87.10
25532;DHT22;13429;48.816;9.118;2024-01-11T05:06:22;-3269.40;87.40
25532;DHT22;13429;48.816;9.118;2024-01-11T05:08:51;-3269.40;88.00
25532;DHT22;13429;48.816;9.118;2024-01-11T05:11:22;-3269.40;88.10
25532;DHT22;13429;48.816;9.118;2024-01-11T05:13:49;-3269.40;87.80
25532;DHT22;13429;48.816;9.118;2024-01-11T05:16:25;-3269.40;88.40
25532;DHT22;13429;48.816;9.118;2024-01-11T05:18:52;-3269.40;87.90
25532;DHT22;13429;48.816;9.118;2024-01-11T05:21:19;-3269.40;87.60
25532;DHT22;13429;48.816;9.118;2024-01-11T05:23:45;-3269.50;87.90
25532;DHT22;13429;48.816;9.118;2024-01-11T05:26:11;-3269.60;87.90
25532;DHT22;13429;48.816;9.118;2024-01-11T05:28:36;-3269.70;87.80
25532;DHT22;13429;48.816;9.118;2024-01-11T05:31:09;-3269.60;87.70
25532;DHT22;13429;48.816;9.118;2024-01-11T05:33:35;-3269.50;87.90
25532;DHT22;13429;48.816;9.118;2024-01-11T05:36:00;-3269.50;87.70
25532;DHT22;13429;48.816;9.118;2024-01-11T05:38:26;-3269.40;87.70
25532;DHT22;13429;48.816;9.118;2024-01-11T05:40:52;-3269.40;87.80
25532;DHT22;13429;48.816;9.118;2024-01-11T05:43:17;-3269.30;87.70
25532;DHT22;13429;48.816;9.118;2024-01-11T05:45:43;-3269.40;87.50
25532;DHT22;13429;48.816;9.118;2024-01-11T05:48:10;-3269.30;87.60
25532;DHT22;13429;48.816;9.118;2024-01-11T05:50:36;-3269.30;87.50
25532;DHT22;13429;48.816;9.118;2024-01-11T05:53:02;-3269.30;87.30
25532;DHT22;13429;48.816;9.118;2024-01-11T05:55:28;-3269.30;87.40
25532;DHT22;13429;48.816;9.118;2024-01-11T05:57:54;-3269.40;87.50
25532;DHT22;13429;48.816;9.118;2024-01-11T06:00:19;-3269.30;87.40
25532;DHT22;13429;48.816;9.118;2024-01-11T06:02:45;-3269.30;87.50
25532;DHT22;13429;48.816;9.118;2024-01-11T06:05:11;-3269.30;87.50
25532;DHT22;13429;48.816;9.118;2024-01-11T06:07:40;-3269.30;87.50
25532;DHT22;13429;48.816;9.118;2024-01-11T06:10:06;-3269.30;87.50
25532;DHT22;13429;48.816;9.118;2024-01-11T06:12:34;-3269.20;87.60
25532;DHT22;13429;48.816;9.118;2024-01-11T06:15:00;-3269.20;87.60
25532;DHT22;13429;48.816;9.118;2024-01-11T06:17:25;-3269.20;87.60
25532;DHT22;13429;48.816;9.118;2024-01-11T06:19:51;-3269.20;87.60
25532;DHT22;13429;48.816;9.118;2024-01-11T06:22:17;-3269.20;87.60
25532;DHT22;13429;48.816;9.118;2024-01-11T06:24:43;-3269.20;87.50
25532;DHT22;13429;48.816;9.118;2024-01-11T06:27:09;-3269.20;87.50
25532;DHT22;13429;48.816;9.118;2024-01-11T06:29:35;-3269.20;87.60
25532;DHT22;13429;48.816;9.118;2024-01-11T06:32:02;-3269.20;87.60
25532;DHT22;13429;48.816;9.118;2024-01-11T06:34:28;-3269.20;87.60
25532;DHT22;13429;48.816;9.118;2024-01-11T06:36:54;-3269.20;87.70
25532;DHT22;13429;48.816;9.118;2024-01-11T06:39:20;-3269.20;87.80
25532;DHT22;13429;48.816;9.118;2024-01-11T06:41:46;-3269.20;87.70
25532;DHT22;13429;48.816;9.118;2024-01-11T06:44:12;-3269.20;87.60
25532;DHT22;13429;48.816;9.118;2024-01-11T06:46:38;-3269.20;87.60
25532;DHT22;13429;48.816;9.118;2024-01-11T06:49:07;-3269.30;87.80
25532;DHT22;13429;48.816;9.118;2024-01-11T06:51:32;-3269.30;87.80
25532;DHT22;13429;48.816;9.118;2024-01-11T06:53:59;-3269.20;87.90
25532;DHT22;13429;48.816;9.118;2024-01-11T06:56:26;-3269.30;87.70
25532;DHT22;13429;48.816;9.118;2024-01-11T06:58:52;-3269.20;87.70
25532;DHT22;13429;48.816;9.118;2024-01-11T07:01:18;-3269.30;87.70
25532;DHT22;13429;48.816;9.118;2024-01-11T07:03:44;-3269.20;87.60
25532;DHT22;13429;48.816;9.118;2024-01-11T07:06:10;-3269.30;87.60
25532;DHT22;13429;48.816;9.118;2024-01-11T07:08:35;-3269.30;87.70
25532;DHT22;13429;48.816;9.118;2024-01-11T07:11:02;-3269.30;88.20
25532;DHT22;13429;48.816;9.118;2024-01-11T07:13:28;-3269.30;88.30
25532;DHT22;13429;48.816;9.118;2024-01-11T07:15:54;-3269.30;88.00
25532;DHT22;13429;48.816;9.118;2024-01-11T07:18:21;-3269.40;88.20
25532;DHT22;13429;48.816;9.118;2024-01-11T07:20:47;-3269.40;87.90
25532;DHT22;13429;48.816;9.118;2024-01-11T07:23:13;-3269.40;88.10
25532;DHT22;13429;48.816;9.118;2024-01-11T07:25:39;-3269.30;88.20
25532;DHT22;13429;48.816;9.118;2024-01-11T07:28:06;-3269.40;88.70
25532;DHT22;13429;48.816;9.118;2024-01-11T07:30:32;-3269.40;88.50
25532;DHT22;13429;48.816;9.118;2024-01-11T07:32:58;-3269.40;88.20
25532;DHT22;13429;48.816;9.118;2024-01-11T07:35:23;-3269.60;88.50
25532;DHT22;13429;48.816;9.118;2024-01-11T07:37:49;-3269.70;88.60
25532;DHT22;13429;48.816;9.118;2024-01-11T07:40:15;-3269.70;88.80
25532;DHT22;13429;48.816;9.118;2024-01-11T07:42:42;-3269.80;88.40
25532;DHT22;13429;48.816;9.118;2024-01-11T07:45:08;-3269.80;88.40
25532;DHT22;13429;48.816;9.118;2024-01-11T07:47:38;-3269.80;88.40
25532;DHT22;13429;48.816;9.118;2024-01-11T07:50:05;-3269.80;88.40
25532;DHT22;13429;48.816;9.118;2024-01-11T07:52:32;-3269.90;88.40
25532;DHT22;13429;48.816;9.118;2024-01-11T07:54:58;-3270.00;88.80
25532;DHT22;13429;48.816;9.118;2024-01-11T07:57:32;-3270.00;88.60
25532;DHT22;13429;48.816;9.118;2024-01-11T07:59:58;-3270.20;88.40
25532;DHT22;13429;48.816;9.118;2024-01-11T08:02:24;-3270.20;88.30
25532;DHT22;13429;48.816;9.118;2024-01-11T08:04:50;-3270.40;88.30
25532;DHT22;13429;48.816;9.118;2024-01-11T08:07:16;-3270.40;88.20
25532;DHT22;13429;48.816;9.118;2024-01-11T08:09:42;-3270.50;88.10
25532;DHT22;13429;48.816;9.118;2024-01-11T08:12:11;-3270.60;88.00
25532;DHT22;13429;48.816;9.118;2024-01-11T08:14:37;-3270.70;87.90
25532;DHT22;13429;48.816;9.118;2024-01-11T08:17:02;-3270.70;87.90
25532;DHT22;13429;48.816;9.118;2024-01-11T08:19:33;-3270.80;87.80
25532;DHT22;13429;48.816;9.118;2024-01-11T08:21:59;-3270.90;87.60
25532;DHT22;13429;48.816;9.118;2024-01-11T08:24:24;-3271.10;87.70
25532;DHT22;13429;48.816;9.118;2024-01-11T08:26:51;-3271.50;87.20
25532;DHT22;13429;48.816;9.118;2024-01-11T08:29:16;-3271.60;87.00
25532;DHT22;13429;48.816;9.118;2024-01-11T08:31:44;-3271.70;87.00
25532;DHT22;13429;48.816;9.118;2024-01-11T08:34:10;-3271.60;86.80
25532;DHT22;13429;48.816;9.118;2024-01-11T08:36:36;-3271.50;86.60
25532;DHT22;13429;48.816;9.118;2024-01-11T08:39:04;-3271.60;86.70
25532;DHT22;13429;48.816;9.118;2024-01-11T08:41:34;-3271.60;86.70
25532;DHT22;13429;48.816;9.118;2024-01-11T08:44:01;-3271.70;86.60
25532;DHT22;13429;48.816;9.118;2024-01-11T08:46:28;-3271.70;86.70
25532;DHT22;13429;48.816;9.118;2024-01-11T08:48:57;-3271.70;86.70
25532;DHT22;13429;48.816;9.118;2024-01-11T08:51:22;-3271.80;86.60
25532;DHT22;13429;48.816;9.118;2024-01-11T08:53:48;-3271.90;86.60
25532;DHT22;13429;48.816;9.118;2024-01-11T08:56:14;-3271.90;86.50
25532;DHT22;13429;48.816;9.118;2024-01-11T08:58:41;-3271.90;86.20
25532;DHT22;13429;48.816;9.118;2024-01-11T09:01:07;-3272.00;86.10
25532;DHT22;13429;48.816;9.118;2024-01-11T09:03:34;-3272.00;86.00
25532;DHT22;13429;48.816;9.118;2024-01-11T09:06:01;-3272.10;86.10
25532;DHT22;13429;48.816;9.118;2024-01-11T09:08:27;-3272.20;86.30
25532;DHT22;13429;48.816;9.118;2024-01-11T09:10:53;-3272.30;86.10
25532;DHT22;13429;48.816;9.118;2024-01-11T09:13:19;-3272.40;86.40
25532;DHT22;13429;48.816;9.118;2024-01-11T09:15:44;-3272.50;86.20
25532;DHT22;13429;48.816;9.118;2024-01-11T09:18:10;-3272.50;85.80
25532;DHT22;13429;48.816;9.118;2024-01-11T09:20:36;-3272.60;86.00
25532;DHT22;13429;48.816;9.118;2024-01-11T09:23:02;-3272.60;86.00
25532;DHT22;13429;48.816;9.118;2024-01-11T09:25:32;-3272.70;85.70
25532;DHT22;13429;48.816;9.118;2024-01-11T09:27:58;-3272.70;85.70
25532;DHT22;13429;48.816;9.118;2024-01-11T09:30:23;-3272.80;85.80
25532;DHT22;13429;48.816;9.118;2024-01-11T09:32:49;-3272.80;85.20
25532;DHT22;13429;48.816;9.118;2024-01-11T09:35:15;-3272.80;85.30
25532;DHT22;13429;48.816;9.118;2024-01-11T09:37:41;-3272.80;84.60
25532;DHT22;13429;48.816;9.118;2024-01-11T09:40:07;-3272.90;85.10
25532;DHT22;13429;48.816;9.118;2024-01-11T09:42:39;-3273.00;85.00
25532;DHT22;13429;48.816;9.118;2024-01-11T09:45:09;-3273.00;84.60
25532;DHT22;13429;48.816;9.118;2024-01-11T09:47:36;-3273.10;84.30
25532;DHT22;13429;48.816;9.118;2024-01-11T09:50:03;-3273.10;83.70
25532;DHT22;13429;48.816;9.118;2024-01-11T09:52:29;-3273.00;84.00
25532;DHT22;13429;48.816;9.118;2024-01-11T09:54:58;-3273.10;84.30
25532;DHT22;13429;48.816;9.118;2024-01-11T09:57:28;-3273.20;84.00
25532;DHT22;13429;48.816;9.118;2024-01-11T09:59:55;-3273.30;84.10
25532;DHT22;13429;48.816;9.118;2024-01-11T10:02:25;-3273.40;84.30
25532;DHT22;13429;48.816;9.118;2024-01-11T10:04:54;-3273.50;83.80
25532;DHT22;13429;48.816;9.118;2024-01-11T10:07:24;-3273.60;83.40
25532;DHT22;13429;48.816;9.118;2024-01-11T10:09:50;-3273.70;83.40
25532;DHT22;13429;48.816;9.118;2024-01-11T10:12:20;-3273.80;83.20
25532;DHT22;13429;48.816;9.118;2024-01-11T10:14:50;-3273.80;83.40
25532;DHT22;13429;48.816;9.118;2024-01-11T10:17:17;-3273.80;83.20
25532;DHT22;13429;48.816;9.118;2024-01-11T10:19:43;-3273.80;82.20
25532;DHT22;13429;48.816;9.118;2024-01-11T10:22:09;-3273.90;82.80
25532;DHT22;13429;48.816;9.118;2024-01-11T10:24:38;-3274.00;82.40
25532;DHT22;13429;48.816;9.118;2024-01-11T10:27:04;-3274.10;82.70
25532;DHT22;13429;48.816;9.118;2024-01-11T10:29:34;-3274.10;82.50
25532;DHT22;13429;48.816;9.118;2024-01-11T10:32:03;-3274.10;81.60
25532;DHT22;13429;48.816;9.118;2024-01-11T10:34:29;-3274.30;82.50
25532;DHT22;13429;48.816;9.118;2024-01-11T10:36:54;-3274.20;81.50
25532;DHT22;13429;48.816;9.118;2024-01-11T10:39:26;-3274.20;82.00
25532;DHT22;13429;48.816;9.118;2024-01-11T10:42:07;-3274.40;82.50
25532;DHT22;13429;48.816;9.118;2024-01-11T10:44:35;-3274.50;81.50
25532;DHT22;13429;48.816;9.118;2024-01-11T10:47:03;-3274.60;81.80
25532;DHT22;13429;48.816;9.118;2024-01-11T10:49:32;-3274.60;81.40
25532;DHT22;13429;48.816;9.118;2024-01-11T10:52:00;-3274.60;80.90
25532;DHT22;13429;48.816;9.118;2024-01-11T10:54:30;-3274.60;81.00
25532;DHT22;13429;48.816;9.118;2024-01-11T10:56:58;-3274.60;80.70
25532;DHT22;13429;48.816;9.118;2024-01-11T10:59:27;-3274.60;80.70
25532;DHT22;13429;48.816;9.118;2024-01-11T11:01:53;-3274.50;79.70
25532;DHT22;13429;48.816;9.118;2024-01-11T11:04:22;-3274.70;80.70
25532;DHT22;13429;48.816;9.118;2024-01-11T11:06:55;-3274.80;80.90
25532;DHT22;13429;48.816;9.118;2024-01-11T11:09:24;-3274.80;79.00
25532;DHT22;13429;48.816;9.118;2024-01-11T11:11:54;-3274.80;80.10
25532;DHT22;13429;48.816;9.118;2024-01-11T11:14:22;-3274.90;79.00
25532;DHT22;13429;48.816;9.118;2024-01-11T11:16:48;-3274.80;79.90
25532;DHT22;13429;48.816;9.118;2024-01-11T11:19:14;-3275.00;79.90
25532;DHT22;13429;48.816;9.118;2024-01-11T11:21:44;-3275.00;79.80
25532;DHT22;13429;48.816;9.118;2024-01-11T11:24:13;-3275.10;79.50
25532;DHT22;13429;48.816;9.118;2024-01-11T11:26:39;-3275.10;79.40
25532;DHT22;13429;48.816;9.118;2024-01-11T11:29:05;-3275.20;79.80
25532;DHT22;13429;48.816;9.118;2024-01-11T11:31:38;-3275.20;78.50
25532;DHT22;13429;48.816;9.118;2024-01-11T11:34:07;-3274.80;78.70
25532;DHT22;13429;48.816;9.118;2024-01-11T11:36:33;-3275.10;79.80
25532;DHT22;13429;48.816;9.118;2024-01-11T11:39:00;-3275.20;79.30
25532;DHT22;13429;48.816;9.118;2024-01-11T11:41:27;-3275.20;79.30
25532;DHT22;13429;48.816;9.118;2024-01-11T11:43:53;-3275.30;79.50
25532;DHT22;13429;48.816;9.118;2024-01-11T11:46:19;-3275.40;79.60
25532;DHT22;13429;48.816;9.118;2024-01-11T11:48:49;-3275.50;79.80
25532;DHT22;13429;48.816;9.118;2024-01-11T11:51:17;-3275.60;78.30
25532;DHT22;13429;48.816;9.118;2024-01-11T11:53:45;-3275.60;78.50
25532;DHT22;13429;48.816;9.118;2024-01-11T11:56:11;-3275.60;78.60
25532;DHT22;13429;48.816;9.118;2024-01-11T11:58:38;-3275.60;78.40
25532;DHT22;13429;48.816;9.118;2024-01-11T12:01:08;-3275.70;78.20
25532;DHT22;13429;48.816;9.118;2024-01-11T12:03:40;-3275.60;78.00
25532;DHT22;13429;48.816;9.118;2024-01-11T12:06:08;-3275.70;78.30
25532;DHT22;13429;48.816;9.118;2024-01-11T12:08:36;-3275.70;78.00
25532;DHT22;13429;48.816;9.118;2024-01-11T12:11:02;-3275.80;77.30
25532;DHT22;13429;48.816;9.118;2024-01-11T12:13:29;-3275.80;76.30
25532;DHT22;13429;48.816;9.118;2024-01-11T12:15:56;-3275.90;77.80
25532;DHT22;13429;48.816;9.118;2024-01-11T12:18:22;-3276.00;77.50
25532;DHT22;13429;48.816;9.118;2024-01-11T12:20:47;-3276.10;77.20
25532;DHT22;13429;48.816;9.118;2024-01-11T12:23:13;-3276.10;77.40
25532;DHT22;13429;48.816;9.118;2024-01-11T12:25:40;-3276.20;77.20
25532;DHT22;13429;48.816;9.118;2024-01-11T12:28:06;-3276.10;76.00
25532;DHT22;13429;48.816;9.118;2024-01-11T12:30:32;-3276.00;76.40
25532;DHT22;13429;48.816;9.118;2024-01-11T12:32:59;-3276.10;77.00
25532;DHT22;13429;48.816;9.118;2024-01-11T12:35:27;-3276.10;76.30
25532;DHT22;13429;48.816;9.118;2024-01-11T12:37:59;-3276.20;76.30
25532;DHT22;13429;48.816;9.118;2024-01-11T12:40:25;-3276.20;75.80
25532;DHT22;13429;48.816;9.118;2024-01-11T12:42:52;-3276.30;76.10
25532;DHT22;13429;48.816;9.118;2024-01-11T12:45:18;-3276.30;75.60
25532;DHT22;13429;48.816;9.118;2024-01-11T12:47:44;-3276.40;75.60
25532;DHT22;13429;48.816;9.118;2024-01-11T12:50:11;-3276.50;75.40
25532;DHT22;13429;48.816;9.118;2024-01-11T12:52:41;-3276.40;75.10
25532;DHT22;13429;48.816;9.118;2024-01-11T12:55:08;-3276.50;75.60
25532;DHT22;13429;48.816;9.118;2024-01-11T12:57:43;-3276.50;75.30
25532;DHT22;13429;48.816;9.118;2024-01-11T13:00:13;-3276.40;75.80
25532;DHT22;13429;48.816;9.118;2024-01-11T13:02:39;-3276.40;75.70
25532;DHT22;13429;48.816;9.118;2024-01-11T13:05:05;-3276.40;75.90
25532;DHT22;13429;48.816;9.118;2024-01-11T13:07:32;-3276.40;75.70
25532;DHT22;13429;48.816;9.118;2024-01-11T13:09:59;-3276.30;75.60
25532;DHT22;13429;48.816;9.118;2024-01-11T13:12:25;-3276.30;75.80
25532;DHT22;13429;48.816;9.118;2024-01-11T13:14:50;-3276.30;75.90
25532;DHT22;13429;48.816;9.118;2024-01-11T13:17:18;-3276.30;75.80
25532;DHT22;13429;48.816;9.118;2024-01-11T13:19:44;-3276.40;75.90
25532;DHT22;13429;48.816;9.118;2024-01-11T13:22:10;-3276.40;75.70
25532;DHT22;13429;48.816;9.118;2024-01-11T13:24:36;-3276.40;76.10
25532;DHT22;13429;48.816;9.118;2024-01-11T13:27:01;-3276.40;75.80
25532;DHT22;13429;48.816;9.118;2024-01-11T13:29:27;-3276.40;75.40
25532;DHT22;13429;48.816;9.118;2024-01-11T13:31:53;-3276.50;75.60
25532;DHT22;13429;48.816;9.118;2024-01-11T13:34:18;-3276.50;75.50
25532;DHT22;13429;48.816;9.118;2024-01-11T13:36:45;-3276.50;75.30
25532;DHT22;13429;48.816;9.118;2024-01-11T13:39:10;-3276.50;75.20
25532;DHT22;13429;48.816;9.118;2024-01-11T13:41:36;-3276.50;75.20
25532;DHT22;13429;48.816;9.118;2024-01-11T13:44:02;-3276.50;75.00
25532;DHT22;13429;48.816;9.118;2024-01-11T13:46:31;-3276.60;75.40
25532;DHT22;13429;48.816;9.118;2024-01-11T13:48:58;-3276.60;75.20
25532;DHT22;13429;48.816;9.118;2024-01-11T13:51:24;-3276.60;75.20
25532;DHT22;13429;48.816;9.118;2024-01-11T13:53:49;-3276.60;75.50
25532;DHT22;13429;48.816;9.118;2024-01-11T13:56:15;-3276.60;75.20
25532;DHT22;13429;48.816;9.118;2024-01-11T13:58:41;-3276.70;75.40
25532;DHT22;13429;48.816;9.118;2024-01-11T14:01:07;-3276.60;75.20
25532;DHT22;13429;48.816;9.118;2024-01-11T14:03:33;-3276.60;75.00
25532;DHT22;13429;48.816;9.118;2024-01-11T14:05:59;-3276.60;75.10
25532;DHT22;13429;48.816;9.118;2024-01-11T14:08:25;-3276.50;74.90
25532;DHT22;13429;48.816;9.118;2024-01-11T14:10:51;-3276.50;75.10
25532;DHT22;13429;48.816;9.118;2024-01-11T14:13:18;-3276.50;74.80
25532;DHT22;13429;48.816;9.118;2024-01-11T14:15:44;-3276.50;75.10
25532;DHT22;13429;48.816;9.118;2024-01-11T14:18:10;-3276.50;75.00
25532;DHT22;13429;48.816;9.118;2024-01-11T14:20:35;-3276.40;75.10
25532;DHT22;13429;48.816;9.118;2024-01-11T14:23:01;-3276.40;75.20
25532;DHT22;13429;48.816;9.118;2024-01-11T14:25:27;-3276.40;75.20
25532;DHT22;13429;48.816;9.118;2024-01-11T14:27:54;-3276.40;75.40
25532;DHT22;13429;48.816;9.118;2024-01-11T14:30:20;-3276.30;75.40
25532;DHT22;13429;48.816;9.118;2024-01-11T14:32:47;-3276.30;75.30
25532;DHT22;13429;48.816;9.118;2024-01-11T14:35:14;-3276.20;75.50
25532;DHT22;13429;48.816;9.118;2024-01-11T14:37:40;-3276.20;75.50
25532;DHT22;13429;48.816;9.118;2024-01-11T14:40:07;-3276.20;75.80
25532;DHT22;13429;48.816;9.118;2024-01-11T14:42:32;-3276.20;75.90
25532;DHT22;13429;48.816;9.118;2024-01-11T14:44:58;-3276.20;76.10